| Date | Time | Temp. (oF) | Dew Point (oF) | Rel. Hum. (%) | Press. (in.) | Wind Dir. | Wind Speed (mph) | Hourly Rainfall (in.) |
|
|---|---|---|---|---|---|---|---|---|---|
| 1 | 11/04 | 00:00 | 40 | 32 | 75 | 30.37 | W | 2 | 0.00 |
| 2 | 11/03 | 23:00 | 41 | 32 | 72 | 30.36 | W | 3 | 0.00 |
| 3 | 11/03 | 22:00 | 42 | 32 | 69 | 30.32 | SW | 2 | 0.00 |
| 4 | 11/03 | 21:00 | 44 | 32 | 64 | 30.27 | WSW | 3 | 0.00 |
| 5 | 11/03 | 20:00 | 46 | 33 | 61 | 30.25 | SSW | 3 | 0.00 |
| 6 | 11/03 | 19:00 | 48 | 33 | 57 | 30.20 | SSW | 4 | 0.00 |
| 7 | 11/03 | 18:00 | 49 | 33 | 56 | 30.12 | SW | 4 | 0.00 |
| 8 | 11/03 | 17:00 | 53 | 36 | 54 | 30.08 | WSW | 8 | 0.00 |
| 9 | 11/03 | 16:00 | 54 | 36 | 52 | 30.03 | WNW | 9 | 0.00 |
| 10 | 11/03 | 15:00 | 54 | 35 | 50 | 30.00 | W | 9 | 0.00 |
| 11 | 11/03 | 14:00 | 51 | 35 | 55 | 29.98 | SW | 10 | 0.00 |
| 12 | 11/03 | 13:00 | 53 | 38 | 57 | 29.94 | WNW | 8 | 0.00 |
| 13 | 11/03 | 12:00 | 51 | 38 | 62 | 29.92 | S | 3 | 0.00 |
| 14 | 11/03 | 11:00 | 50 | 38 | 64 | 29.87 | SSW | 4 | 0.00 |
| 15 | 11/03 | 10:00 | 48 | 39 | 73 | 29.82 | WNW | 6 | 0.00 |
| 16 | 11/03 | 09:00 | 46 | 41 | 83 | 29.78 | WSW | 4 | 0.00 |
| 17 | 11/03 | 08:00 | 46 | 42 | 88 | 29.75 | SSE | 4 | 0.00 |
| 18 | 11/03 | 07:00 | 47 | 42 | 85 | 29.72 | SSW | 4 | 0.00 |
| 19 | 11/03 | 06:00 | 48 | 43 | 85 | 29.67 | WSW | 4 | 0.00 |
| 20 | 11/03 | 05:00 | 48 | 45 | 92 | 29.64 | WSW | 3 | 0.00 |
| 21 | 11/03 | 04:00 | 49 | 47 | 94 | 29.66 | SSW | 6 | 0.00 |
| 22 | 11/03 | 03:00 | 51 | 50 | 98 | 29.64 | SSW | 4 | 0.01 |
| 23 | 11/03 | 02:00 | 53 | 53 | 100 | 29.62 | WSW | 4 | 0.00 |
| 24 | 11/03 | 01:00 | 53 | 53 | 100 | 29.64 | WNW | 2 | 0.02 |